Time;durP1;ratioP1;P1;durP2;ratioP2;P2;SDS_P1;SDS_P2;PMS_P1;PMS_P2;Temp;Humidity;BMP_temperature;BMP_pressure;BME280_temperature;BME280_humidity;BME280_pressure;Samples;Min_cycle;Max_cycle;Signal;HPM_P1;HPM_P2
2023/01/24 00:01:18;;;;;;;4.43;4.03;;;20.30;55.70;;;;;;4983039;28;88934;-80
2023/01/24 00:03:44;;;;;;;4.57;4.07;;;20.30;55.70;;;;;;4992272;28;87205;-80
2023/01/24 00:06:10;;;;;;;4.65;4.25;;;20.20;55.70;;;;;;4983329;28;87089;-79
2023/01/24 00:08:35;;;;;;;4.90;4.38;;;20.30;55.80;;;;;;4983813;28;88626;-80
2023/01/24 00:11:03;;;;;;;5.82;4.75;;;20.20;55.70;;;;;;4982397;28;88434;-80
2023/01/24 00:13:29;;;;;;;4.75;4.30;;;20.20;55.90;;;;;;4983745;28;87251;-81
2023/01/24 00:16:05;;;;;;;4.40;4.00;;;20.20;55.80;;;;;;4992428;28;86747;-80
2023/01/24 00:18:32;;;;;;;4.47;3.92;;;20.20;56.00;;;;;;4980322;28;87745;-80
2023/01/24 00:21:12;;;;;;;5.20;4.30;;;20.10;55.90;;;;;;4992017;28;87829;-80
2023/01/24 00:23:42;;;;;;;6.47;4.45;;;20.10;55.90;;;;;;4981933;28;88447;-80
2023/01/24 00:26:09;;;;;;;4.60;4.13;;;20.10;55.90;;;;;;4981725;28;86934;-80
2023/01/24 00:28:35;;;;;;;5.15;4.03;;;20.10;55.70;;;;;;4985811;28;87339;-80
2023/01/24 00:31:01;;;;;;;5.57;4.32;;;20.10;55.80;;;;;;4984750;28;87855;-80
2023/01/24 00:33:27;;;;;;;6.03;4.60;;;20.00;55.80;;;;;;4984763;28;87333;-80
2023/01/24 00:35:53;;;;;;;3.97;3.60;;;20.00;55.80;;;;;;4988706;28;86938;-79
2023/01/24 00:38:22;;;;;;;5.25;4.75;;;20.00;55.90;;;;;;4994116;28;88364;-80
2023/01/24 00:40:47;;;;;;;4.78;4.30;;;20.00;55.80;;;;;;4986361;28;88153;-80
2023/01/24 00:43:13;;;;;;;6.22;4.65;;;20.00;55.80;;;;;;4975586;28;86966;-79
2023/01/24 00:45:40;;;;;;;4.18;3.78;;;20.00;55.80;;;;;;4981859;28;87381;-79
2023/01/24 00:48:07;;;;;;;5.10;4.30;;;20.00;55.80;;;;;;4986644;28;89012;-80
2023/01/24 00:50:33;;;;;;;4.40;3.90;;;19.90;55.80;;;;;;4991365;28;88145;-80
2023/01/24 00:53:00;;;;;;;5.07;4.57;;;19.90;55.80;;;;;;4987309;28;87334;-80
2023/01/24 00:55:26;;;;;;;5.55;4.60;;;19.90;55.80;;;;;;4987616;28;87412;-80
2023/01/24 00:57:52;;;;;;;4.93;4.10;;;19.90;55.80;;;;;;4986204;28;87795;-81
2023/01/24 01:00:18;;;;;;;5.07;4.57;;;19.90;55.80;;;;;;4983198;28;87355;-80
2023/01/24 01:02:43;;;;;;;4.57;4.15;;;19.80;55.80;;;;;;4982898;28;87229;-80
2023/01/24 01:05:09;;;;;;;4.68;4.18;;;19.80;55.90;;;;;;4989698;28;86456;-80
2023/01/24 01:07:35;;;;;;;4.65;3.97;;;19.80;55.80;;;;;;4994001;28;88463;-80
2023/01/24 01:10:01;;;;;;;4.72;4.25;;;19.80;55.80;;;;;;4984741;28;87049;-80
2023/01/24 01:12:26;;;;;;;5.03;4.38;;;19.70;55.80;;;;;;4987422;28;88111;-80
2023/01/24 01:14:52;;;;;;;5.10;4.55;;;19.70;55.80;;;;;;4983780;28;87799;-80
2023/01/24 01:17:18;;;;;;;4.53;4.13;;;19.70;55.80;;;;;;4988648;28;88430;-79
2023/01/24 01:19:43;;;;;;;4.70;4.30;;;19.70;55.70;;;;;;4988494;28;87880;-79
2023/01/24 01:22:09;;;;;;;4.47;4.07;;;19.70;55.70;;;;;;4992831;28;87365;-80
2023/01/24 01:24:35;;;;;;;5.00;4.50;;;19.70;55.70;;;;;;4985833;28;86974;-80
2023/01/24 01:27:01;;;;;;;5.28;4.78;;;19.70;55.70;;;;;;4984676;28;88174;-80
2023/01/24 01:29:26;;;;;;;5.07;4.57;;;19.70;55.90;;;;;;4988356;28;87835;-80
2023/01/24 01:31:52;;;;;;;4.80;4.30;;;19.70;55.80;;;;;;4987907;28;87386;-80
2023/01/24 01:34:18;;;;;;;4.70;4.15;;;19.70;56.00;;;;;;4994717;28;86986;-80
2023/01/24 01:36:43;;;;;;;5.03;4.60;;;19.60;55.80;;;;;;4989684;28;88981;-80
2023/01/24 01:39:09;;;;;;;5.78;4.55;;;19.60;55.90;;;;;;4981644;28;89228;-80
2023/01/24 01:41:35;;;;;;;5.22;4.72;;;19.60;55.80;;;;;;4976995;28;87282;-79
2023/01/24 01:44:37;;;;;;;5.25;4.65;;;19.60;55.70;;;;;;4995488;28;86959;-79
2023/01/24 01:47:06;;;;;;;4.75;4.25;;;19.60;55.60;;;;;;4983722;28;94707;-79
2023/01/24 01:49:31;;;;;;;4.85;4.18;;;19.60;55.60;;;;;;4985183;28;87333;-80
2023/01/24 01:52:02;;;;;;;5.22;4.72;;;19.60;55.80;;;;;;4988044;28;86937;-80
2023/01/24 01:54:34;;;;;;;4.82;4.43;;;19.50;55.80;;;;;;4985114;28;87472;-79
2023/01/24 01:57:11;;;;;;;4.32;3.92;;;19.50;55.80;;;;;;4979205;28;89880;-80
2023/01/24 02:00:04;;;;;;;5.53;4.75;;;19.50;55.80;;;;;;4988359;28;88450;-81
2023/01/24 02:02:31;;;;;;;4.75;4.35;;;19.50;55.80;;;;;;4979347;28;87885;-79
2023/01/24 02:05:01;;;;;;;4.20;3.80;;;19.50;55.80;;;;;;4979954;28;87357;-80
2023/01/24 02:07:45;;;;;;;5.00;4.50;;;19.50;55.80;;;;;;4981325;28;91067;-80
2023/01/24 02:10:12;;;;;;;4.50;4.10;;;19.50;55.90;;;;;;4990759;28;88096;-79
2023/01/24 02:12:41;;;;;;;5.03;4.53;;;19.50;55.90;;;;;;4982475;28;86977;-79
2023/01/24 02:18:05;;;;;;;4.65;4.25;;;19.40;55.60;;;;;;4987866;28;87354;-79
2023/01/24 02:20:44;;;;;;;5.00;4.50;;;19.40;55.70;;;;;;4981998;28;87407;-79
2023/01/24 02:23:43;;;;;;;5.00;4.57;;;19.40;55.80;;;;;;4988893;28;87046;-79
2023/01/24 02:26:21;;;;;;;4.55;4.15;;;19.40;56.40;;;;;;4979794;28;96015;-80
2023/01/24 02:28:55;;;;;;;5.80;4.97;;;19.40;55.80;;;;;;4985260;28;89108;-80
2023/01/24 02:31:22;;;;;;;5.00;4.35;;;19.40;55.80;;;;;;4984305;28;88943;-80
2023/01/24 02:33:48;;;;;;;5.18;4.68;;;19.40;56.60;;;;;;4981508;28;87213;-80
2023/01/24 02:36:28;;;;;;;5.13;4.63;;;19.30;55.80;;;;;;4976978;28;87418;-79
2023/01/24 02:39:05;;;;;;;4.65;4.20;;;19.30;55.90;;;;;;4986314;28;88093;-80
2023/01/24 02:41:48;;;;;;;5.10;4.60;;;19.30;55.90;;;;;;4983397;28;87954;-79
2023/01/24 02:44:21;;;;;;;4.47;4.07;;;19.30;55.90;;;;;;4992565;28;86944;-79
2023/01/24 02:46:46;;;;;;;4.82;4.40;;;19.30;56.00;;;;;;4990298;28;91313;-79
2023/01/24 02:49:13;;;;;;;4.90;4.50;;;19.30;56.00;;;;;;4986783;28;88379;-80
2023/01/24 02:54:23;;;;;;;4.50;4.10;;;19.30;55.90;;;;;;4983286;28;87798;-79
2023/01/24 02:59:33;;;;;;;5.28;4.78;;;19.20;55.80;;;;;;4983015;28;87301;-79
2023/01/24 03:01:59;;;;;;;5.25;4.75;;;19.20;55.90;;;;;;4984032;28;86921;-79
2023/01/24 03:04:24;;;;;;;4.68;4.25;;;19.20;55.90;;;;;;4986735;28;86962;-79
2023/01/24 03:06:50;;;;;;;4.65;4.10;;;19.20;55.90;;;;;;4986899;28;87396;-79
2023/01/24 03:09:19;;;;;;;4.97;4.55;;;19.20;55.70;;;;;;4989502;28;88288;-79
2023/01/24 03:11:49;;;;;;;5.57;4.78;;;19.20;55.60;;;;;;4987985;28;87667;-79
2023/01/24 03:36:31;;;;;;;5.70;4.90;;;19.10;56.10;;;;;;4984256;28;87312;-79
2023/01/24 03:41:41;;;;;;;5.00;4.47;;;19.10;55.70;;;;;;4974691;28;87453;-79
2023/01/24 03:44:06;;;;;;;3.97;3.67;;;19.00;55.70;;;;;;4988172;28;87191;-79
2023/01/24 03:46:32;;;;;;;4.78;4.30;;;19.00;55.70;;;;;;4985109;28;87882;-80
2023/01/24 03:48:57;;;;;;;5.45;4.90;;;19.00;55.80;;;;;;4977971;28;87465;-80
2023/01/24 03:54:07;;;;;;;5.07;4.57;;;19.00;55.60;;;;;;4975652;28;87418;-79
2023/01/24 03:56:32;;;;;;;5.32;4.82;;;19.00;55.60;;;;;;4974988;28;87122;-79
2023/01/24 03:58:58;;;;;;;5.25;4.75;;;19.00;55.50;;;;;;4986715;28;86962;-79
2023/01/24 04:01:24;;;;;;;5.25;4.75;;;19.00;55.70;;;;;;4977895;28;88453;-79
2023/01/24 04:03:49;;;;;;;5.25;4.75;;;19.00;55.50;;;;;;4990115;28;87862;-79
2023/01/24 04:06:17;;;;;;;5.40;4.90;;;19.00;55.70;;;;;;4983697;28;86968;-79
2023/01/24 04:08:42;;;;;;;5.43;4.20;;;19.00;55.50;;;;;;4975246;28;86965;-79
2023/01/24 04:11:08;;;;;;;4.50;4.10;;;18.90;55.50;;;;;;4985755;28;88620;-79
2023/01/24 04:13:33;;;;;;;5.30;4.80;;;19.00;55.40;;;;;;4989890;28;88218;-79
2023/01/24 04:15:59;;;;;;;5.95;5.05;;;19.00;55.60;;;;;;4991234;28;86919;-80
2023/01/24 04:18:25;;;;;;;5.43;4.75;;;18.90;55.60;;;;;;4990504;28;87121;-79
2023/01/24 04:20:50;;;;;;;5.40;4.10;;;18.90;55.40;;;;;;4989996;28;88226;-79
2023/01/24 04:23:16;;;;;;;4.95;4.50;;;18.90;55.60;;;;;;4987712;28;87211;-79
2023/01/24 04:25:41;;;;;;;4.90;4.50;;;18.90;55.60;;;;;;4991851;28;87029;-79
2023/01/24 04:28:07;;;;;;;5.25;4.75;;;18.90;55.40;;;;;;4988659;28;87856;-80
2023/01/24 04:30:33;;;;;;;5.00;4.50;;;18.90;55.50;;;;;;4987266;28;87493;-79
2023/01/24 04:32:58;;;;;;;5.10;4.60;;;18.90;55.40;;;;;;4987496;28;87751;-79
2023/01/24 04:35:27;;;;;;;5.40;4.90;;;18.90;55.30;;;;;;4994260;28;88547;-79
2023/01/24 04:37:53;;;;;;;5.03;4.53;;;18.90;55.30;;;;;;4987882;28;88801;-80
2023/01/24 04:40:18;;;;;;;5.20;4.70;;;18.90;55.30;;;;;;4983202;28;88515;-80
2023/01/24 04:42:44;;;;;;;5.53;5.03;;;18.90;55.30;;;;;;4995583;28;87840;-79
2023/01/24 04:45:11;;;;;;;4.75;4.35;;;18.80;55.30;;;;;;4985008;28;87050;-79
2023/01/24 04:47:37;;;;;;;4.97;4.47;;;18.80;55.30;;;;;;4985214;28;87421;-79
2023/01/24 04:50:03;;;;;;;5.38;4.88;;;18.80;55.30;;;;;;4991830;28;88633;-79
2023/01/24 04:52:28;;;;;;;4.90;4.50;;;18.80;55.40;;;;;;4980948;28;89325;-79
2023/01/24 04:54:54;;;;;;;5.32;4.82;;;18.80;55.30;;;;;;4982407;28;88522;-79
2023/01/24 04:57:20;;;;;;;4.32;3.92;;;18.80;55.30;;;;;;4987338;28;87388;-80
2023/01/24 04:59:45;;;;;;;4.43;4.03;;;18.80;55.30;;;;;;4988903;28;88434;-79
2023/01/24 05:02:11;;;;;;;5.30;4.80;;;18.80;55.20;;;;;;4986194;28;89295;-80
2023/01/24 05:04:36;;;;;;;5.65;5.10;;;18.80;55.30;;;;;;4990205;28;87191;-80
2023/01/24 05:07:02;;;;;;;5.20;4.70;;;18.80;55.40;;;;;;4989468;28;86919;-79
2023/01/24 05:09:28;;;;;;;4.47;4.07;;;18.80;55.30;;;;;;4989316;28;88033;-79
2023/01/24 05:11:54;;;;;;;4.88;4.38;;;18.80;55.30;;;;;;4988782;28;88101;-79
2023/01/24 05:14:19;;;;;;;4.82;4.35;;;18.80;55.30;;;;;;4988081;28;87356;-79
2023/01/24 05:16:45;;;;;;;5.22;4.70;;;18.80;55.30;;;;;;4980033;28;87639;-80
2023/01/24 05:19:10;;;;;;;5.07;4.57;;;18.70;55.20;;;;;;4980130;28;90099;-80
2023/01/24 05:21:36;;;;;;;5.53;4.68;;;18.80;55.20;;;;;;4980547;28;89000;-80
2023/01/24 05:24:03;;;;;;;4.80;4.30;;;18.80;55.20;;;;;;4983866;28;88116;-80
2023/01/24 05:26:28;;;;;;;4.72;4.32;;;18.70;55.30;;;;;;4981180;28;87448;-79
2023/01/24 05:28:54;;;;;;;5.40;4.90;;;18.70;55.20;;;;;;4979125;28;87642;-79
2023/01/24 05:31:20;;;;;;;5.10;4.70;;;18.70;55.20;;;;;;4984421;28;87940;-80
2023/01/24 05:33:46;;;;;;;4.72;4.32;;;18.70;55.20;;;;;;4988100;28;87033;-80
2023/01/24 05:36:14;;;;;;;4.55;4.15;;;18.70;55.20;;;;;;4989829;28;88709;-80
2023/01/24 05:38:41;;;;;;;5.32;4.82;;;18.70;55.20;;;;;;4985587;28;87622;-80
2023/01/24 05:41:09;;;;;;;5.00;4.50;;;18.70;55.20;;;;;;4986398;28;88299;-80
2023/01/24 05:43:36;;;;;;;5.15;4.65;;;18.70;55.20;;;;;;4989205;28;87180;-80
2023/01/24 05:46:07;;;;;;;4.88;4.47;;;18.60;55.20;;;;;;4983430;28;87055;-79
2023/01/24 05:48:33;;;;;;;5.38;4.88;;;18.60;55.40;;;;;;4982781;28;88904;-79
2023/01/24 05:51:00;;;;;;;4.85;4.38;;;18.60;55.20;;;;;;4986977;28;90606;-79
2023/01/24 05:53:28;;;;;;;4.88;4.45;;;18.60;55.20;;;;;;4979993;28;86938;-79
2023/01/24 05:55:58;;;;;;;4.85;4.43;;;18.60;55.00;;;;;;4983442;28;86944;-79
2023/01/24 05:58:25;;;;;;;4.80;4.40;;;18.60;55.00;;;;;;4984834;28;88672;-79
2023/01/24 06:00:51;;;;;;;4.88;4.40;;;18.60;55.10;;;;;;4984656;28;87071;-80
2023/01/24 06:03:17;;;;;;;4.93;4.53;;;18.60;55.10;;;;;;4989024;28;86970;-79
2023/01/24 06:05:47;;;;;;;4.88;4.40;;;18.60;55.20;;;;;;4994980;28;86793;-80
2023/01/24 06:08:13;;;;;;;4.78;4.38;;;18.60;55.20;;;;;;4983039;28;87600;-79
2023/01/24 06:10:38;;;;;;;4.95;4.45;;;18.60;55.20;;;;;;4980526;28;89865;-79
2023/01/24 06:13:04;;;;;;;5.75;5.15;;;18.60;55.10;;;;;;4983484;28;88614;-79
2023/01/24 06:15:30;;;;;;;5.43;4.90;;;18.60;55.10;;;;;;4986073;28;87386;-80
2023/01/24 06:17:55;;;;;;;5.03;4.53;;;18.60;54.90;;;;;;4981617;28;90426;-79
2023/01/24 06:20:21;;;;;;;5.30;4.80;;;18.60;55.00;;;;;;4988464;28;86974;-79
2023/01/24 06:23:00;;;;;;;4.78;4.30;;;18.60;55.60;;;;;;4992200;28;86869;-80
2023/01/24 06:25:26;;;;;;;4.70;4.30;;;18.50;55.00;;;;;;4982475;28;87313;-80
2023/01/24 06:27:52;;;;;;;5.32;4.82;;;18.60;55.00;;;;;;4985418;28;89508;-79
2023/01/24 06:30:19;;;;;;;5.05;4.55;;;18.50;55.00;;;;;;4985499;28;90030;-79
2023/01/24 06:33:13;;;;;;;4.93;4.50;;;18.60;54.90;;;;;;4986323;28;87202;-80
2023/01/24 06:35:44;;;;;;;4.85;4.45;;;18.50;54.90;;;;;;4981930;28;87444;-79
2023/01/24 06:38:21;;;;;;;4.88;4.47;;;18.50;55.00;;;;;;4986342;28;89450;-79
2023/01/24 06:40:55;;;;;;;4.93;4.47;;;18.60;54.90;;;;;;4990624;28;93753;-80
2023/01/24 06:43:21;;;;;;;4.60;4.20;;;18.60;55.00;;;;;;4984033;28;87030;-79
2023/01/24 06:45:47;;;;;;;5.45;4.95;;;18.70;54.90;;;;;;4989262;28;87109;-79
2023/01/24 06:48:12;;;;;;;4.72;4.32;;;18.70;54.80;;;;;;4993941;28;87280;-80
2023/01/24 06:50:38;;;;;;;4.63;4.22;;;18.70;55.20;;;;;;4981353;28;87821;-80
2023/01/24 06:53:04;;;;;;;4.22;3.83;;;18.80;55.00;;;;;;4986876;28;87067;-80
2023/01/24 06:55:30;;;;;;;6.60;4.20;;;18.90;55.10;;;;;;4989927;28;86169;-80
2023/01/24 06:57:57;;;;;;;4.80;3.55;;;19.00;55.00;;;;;;4978508;28;87278;-81
2023/01/24 07:00:23;;;;;;;4.28;3.88;;;19.20;54.90;;;;;;4987622;28;87330;-79
2023/01/24 07:02:56;;;;;;;4.70;4.22;;;19.30;54.70;;;;;;4991819;28;88179;-80
2023/01/24 07:05:21;;;;;;;4.60;4.03;;;19.40;54.50;;;;;;4987099;28;87366;-80
2023/01/24 07:07:47;;;;;;;4.57;4.18;;;19.50;54.30;;;;;;4985317;28;87950;-80
2023/01/24 07:10:12;;;;;;;5.10;4.60;;;19.50;54.60;;;;;;4980528;28;87721;-80
2023/01/24 07:12:41;;;;;;;4.25;3.85;;;19.50;55.00;;;;;;4988457;28;87469;-80
2023/01/24 07:15:07;;;;;;;6.47;4.03;;;19.50;54.30;;;;;;4981447;28;87661;-81
2023/01/24 07:17:33;;;;;;;4.43;4.03;;;19.50;54.60;;;;;;4981445;28;87625;-81
2023/01/24 07:19:58;;;;;;;4.50;4.10;;;19.40;54.70;;;;;;4989255;28;87244;-81
2023/01/24 07:22:25;;;;;;;4.53;4.13;;;19.30;54.80;;;;;;4981547;28;87281;-81
2023/01/24 07:24:51;;;;;;;4.20;3.80;;;19.30;55.00;;;;;;4984920;28;86956;-81
2023/01/24 07:27:17;;;;;;;4.47;4.07;;;19.20;55.30;;;;;;4983567;28;88885;-81
2023/01/24 07:29:43;;;;;;;4.90;3.90;;;19.20;55.20;;;;;;4983613;28;88257;-82
2023/01/24 07:32:09;;;;;;;4.70;4.05;;;19.20;55.10;;;;;;4985954;28;86985;-81
2023/01/24 07:34:35;;;;;;;5.13;3.92;;;19.20;55.10;;;;;;4984174;28;87104;-81
2023/01/24 07:37:07;;;;;;;7.50;4.00;;;19.20;55.30;;;;;;4982241;28;87490;-82
2023/01/24 07:39:33;;;;;;;4.65;3.97;;;19.20;55.30;;;;;;4981693;28;87420;-81
2023/01/24 07:41:58;;;;;;;4.50;4.03;;;19.20;55.30;;;;;;4982745;28;86852;-81
2023/01/24 07:44:24;;;;;;;5.40;3.72;;;19.20;55.40;;;;;;4984264;28;86496;-80
2023/01/24 07:46:50;;;;;;;6.53;4.22;;;19.10;55.30;;;;;;4983975;28;88505;-80
2023/01/24 07:49:15;;;;;;;5.18;4.45;;;19.10;55.60;;;;;;4959536;28;87604;-81
2023/01/24 07:51:42;;;;;;;10.50;4.93;;;19.10;55.40;;;;;;4978956;28;88248;-82
2023/01/24 07:54:08;;;;;;;10.07;4.40;;;19.20;55.30;;;;;;4984353;28;87430;-79
2023/01/24 07:56:34;;;;;;;13.88;5.60;;;19.30;55.20;;;;;;4983644;28;88596;-79
2023/01/24 07:58:59;;;;;;;9.45;4.82;;;19.40;55.20;;;;;;4985080;28;87856;-79
2023/01/24 08:01:25;;;;;;;10.40;4.50;;;19.50;54.80;;;;;;4988948;28;87242;-80
2023/01/24 08:03:57;;;;;;;5.70;4.18;;;19.60;54.80;;;;;;4988748;28;90138;-80
2023/01/24 08:06:24;;;;;;;8.52;4.30;;;19.70;54.70;;;;;;4991649;28;89860;-80
2023/01/24 08:08:50;;;;;;;5.13;3.80;;;19.80;54.70;;;;;;4992750;28;88178;-80
2023/01/24 08:11:17;;;;;;;6.05;3.88;;;19.90;54.40;;;;;;4979447;28;87373;-80
2023/01/24 08:13:44;;;;;;;10.10;4.15;;;20.00;54.50;;;;;;4989033;28;87043;-80
2023/01/24 08:16:10;;;;;;;7.65;4.15;;;20.10;54.00;;;;;;4993234;28;89390;-81
2023/01/24 08:18:39;;;;;;;11.38;4.90;;;20.20;54.00;;;;;;4988856;28;88404;-80
2023/01/24 08:21:05;;;;;;;10.65;4.90;;;20.20;53.90;;;;;;4989796;28;87160;-80
2023/01/24 08:23:30;;;;;;;15.70;6.57;;;20.30;54.00;;;;;;4986300;28;87303;-81
2023/01/24 08:26:01;;;;;;;15.85;6.30;;;20.20;52.50;;;;;;4994366;28;87002;-81
2023/01/24 08:28:27;;;;;;;11.00;5.97;;;20.20;52.40;;;;;;4982130;28;89815;-80
2023/01/24 08:30:53;;;;;;;12.80;5.53;;;20.10;52.90;;;;;;4988074;28;87238;-80
2023/01/24 08:33:18;;;;;;;18.27;6.93;;;20.10;53.00;;;;;;4980217;28;87451;-80
2023/01/24 08:35:47;;;;;;;14.27;7.60;;;20.10;52.80;;;;;;4986328;28;86995;-80
2023/01/24 08:38:14;;;;;;;10.77;6.63;;;20.00;52.60;;;;;;4984344;28;87867;-80
2023/01/24 08:40:41;;;;;;;16.80;6.55;;;20.00;53.20;;;;;;4989260;28;88212;-80
2023/01/24 08:43:06;;;;;;;13.32;5.47;;;20.00;53.50;;;;;;4987719;28;87312;-80
2023/01/24 08:45:32;;;;;;;15.38;5.88;;;20.00;53.50;;;;;;4982959;28;89611;-80
2023/01/24 08:47:58;;;;;;;13.60;5.63;;;20.00;53.40;;;;;;4979240;28;87505;-80
2023/01/24 08:50:24;;;;;;;17.58;5.78;;;20.10;53.30;;;;;;4982131;28;87615;-79
2023/01/24 08:52:53;;;;;;;13.10;5.97;;;20.10;53.30;;;;;;4985790;28;87356;-79
2023/01/24 08:55:18;;;;;;;8.85;4.60;;;20.10;53.30;;;;;;4990229;28;89783;-80
2023/01/24 08:57:44;;;;;;;12.57;5.60;;;20.10;53.40;;;;;;4982633;28;88249;-79
2023/01/24 09:00:13;;;;;;;11.43;5.15;;;20.10;53.40;;;;;;4982354;28;87453;-80
2023/01/24 09:02:38;;;;;;;8.95;5.13;;;20.10;53.30;;;;;;4978846;28;88976;-80
2023/01/24 09:05:05;;;;;;;9.55;5.00;;;20.00;53.30;;;;;;4987169;28;89503;-80
2023/01/24 09:07:31;;;;;;;10.40;5.07;;;20.00;53.40;;;;;;4986853;28;88762;-80
2023/01/24 09:09:57;;;;;;;16.77;5.95;;;20.00;53.40;;;;;;4983795;28;87040;-80
2023/01/24 09:12:23;;;;;;;10.48;5.45;;;19.90;53.40;;;;;;4988959;28;88013;-80
2023/01/24 09:14:48;;;;;;;12.43;5.00;;;19.90;53.50;;;;;;4990595;28;88665;-79
2023/01/24 09:17:14;;;;;;;10.32;4.93;;;20.00;53.50;;;;;;4983677;28;87942;-80
2023/01/24 09:19:39;;;;;;;9.35;4.88;;;20.00;53.40;;;;;;4982109;28;87176;-80
2023/01/24 09:22:05;;;;;;;10.38;4.90;;;20.10;53.40;;;;;;4983568;28;87377;-80
2023/01/24 09:24:30;;;;;;;8.90;4.55;;;20.10;53.40;;;;;;4986065;28;88194;-79
2023/01/24 09:26:56;;;;;;;8.82;4.05;;;20.20;53.20;;;;;;4985613;28;87521;-80
2023/01/24 09:29:21;;;;;;;8.88;4.60;;;20.20;53.20;;;;;;4985704;28;88164;-80
2023/01/24 09:31:48;;;;;;;10.23;4.60;;;20.20;53.30;;;;;;4990219;28;88068;-80
2023/01/24 09:34:14;;;;;;;15.50;4.97;;;20.20;53.10;;;;;;4983760;28;88679;-80
2023/01/24 09:36:39;;;;;;;9.75;5.00;;;20.20;53.10;;;;;;4987376;28;86989;-80
2023/01/24 09:39:05;;;;;;;8.65;4.28;;;20.10;53.20;;;;;;4989160;28;86952;-80
2023/01/24 09:42:03;;;;;;;11.18;4.68;;;20.10;53.20;;;;;;4982152;28;86959;-80
2023/01/24 09:45:06;;;;;;;7.57;4.38;;;20.10;53.30;;;;;;4989540;28;88720;-79
2023/01/24 09:47:44;;;;;;;8.10;4.25;;;20.00;53.40;;;;;;4983532;28;87913;-80
2023/01/24 09:50:20;;;;;;;5.82;4.20;;;20.10;53.40;;;;;;4989584;28;87447;-80
2023/01/24 09:52:51;;;;;;;8.10;4.20;;;20.10;53.30;;;;;;4980993;28;91283;-80
2023/01/24 09:55:23;;;;;;;8.02;3.95;;;20.10;53.30;;;;;;4987998;28;87878;-79
2023/01/24 09:58:01;;;;;;;6.28;4.05;;;20.20;53.10;;;;;;4983139;28;94139;-80
2023/01/24 10:00:38;;;;;;;8.57;4.10;;;20.20;53.00;;;;;;4989255;28;86904;-80
2023/01/24 10:03:17;;;;;;;7.38;3.75;;;20.30;53.10;;;;;;4989878;28;86961;-80
2023/01/24 10:05:51;;;;;;;;;;;20.30;53.10;;;;;;4989304;28;88542;-80
2023/01/24 10:08:20;;;;;;;7.90;4.10;;;20.20;53.00;;;;;;4986200;28;87782;-79
2023/01/24 10:11:13;;;;;;;11.63;4.60;;;20.20;53.10;;;;;;4985901;28;87155;-80
2023/01/24 10:13:58;;;;;;;6.88;3.85;;;20.20;53.10;;;;;;4983075;28;91429;-80
2023/01/24 10:16:43;;;;;;;7.45;3.92;;;20.10;53.10;;;;;;4981317;28;88416;-79
2023/01/24 10:19:30;;;;;;;6.80;4.03;;;20.10;53.10;;;;;;4985760;28;88313;-80
2023/01/24 10:22:30;;;;;;;7.72;4.00;;;20.10;53.30;;;;;;4989262;28;88326;-81
2023/01/24 10:25:11;;;;;;;6.88;3.90;;;20.10;53.30;;;;;;4969857;28;87638;-80
2023/01/24 10:27:42;;;;;;;6.00;3.92;;;20.10;53.20;;;;;;4966370;28;87931;-79
2023/01/24 10:30:27;;;;;;;6.15;4.32;;;20.10;53.10;;;;;;4968772;28;88217;-80
2023/01/24 10:33:00;;;;;;;11.18;4.57;;;20.10;50.90;;;;;;4973032;28;87371;-81
2023/01/24 10:35:30;;;;;;;9.45;4.72;;;20.20;51.80;;;;;;4973747;28;87367;-80
2023/01/24 10:37:59;;;;;;;11.82;4.45;;;20.20;52.00;;;;;;4971779;28;87763;-80
2023/01/24 10:40:25;;;;;;;7.93;4.22;;;20.30;51.80;;;;;;4952901;28;90024;-80
2023/01/24 10:42:51;;;;;;;9.70;4.70;;;20.30;51.50;;;;;;4971786;28;87250;-79
2023/01/24 10:45:22;;;;;;;7.40;4.45;;;20.30;51.30;;;;;;4971731;28;87167;-81
2023/01/24 10:47:59;;;;;;;13.50;4.63;;;20.30;51.60;;;;;;4973008;28;91292;-79
2023/01/24 10:50:40;;;;;;;8.30;4.18;;;20.30;51.60;;;;;;4949461;28;91265;-81
2023/01/24 10:53:23;;;;;;;6.47;4.15;;;20.30;51.60;;;;;;4968996;28;87653;-80
2023/01/24 10:56:01;;;;;;;11.73;4.18;;;20.20;51.90;;;;;;4971893;28;91306;-80
2023/01/24 10:58:40;;;;;;;10.07;4.85;;;20.20;52.10;;;;;;4971493;28;88254;-80
2023/01/24 11:01:17;;;;;;;7.85;3.97;;;20.30;52.20;;;;;;4973893;28;88710;-80
2023/01/24 11:03:43;;;;;;;6.47;4.35;;;20.30;52.30;;;;;;4989564;28;87250;-80
2023/01/24 11:06:28;;;;;;;8.98;4.07;;;20.30;52.40;;;;;;4992561;28;86934;-81
2023/01/24 11:09:02;;;;;;;6.55;4.20;;;20.30;52.30;;;;;;4978897;28;88598;-80
2023/01/24 11:11:33;;;;;;;8.02;4.10;;;20.30;52.40;;;;;;4979340;28;90628;-80
2023/01/24 11:14:00;;;;;;;9.75;4.47;;;20.40;52.90;;;;;;4987764;28;88272;-80
2023/01/24 11:16:43;;;;;;;8.70;4.50;;;20.30;53.10;;;;;;4982934;28;87334;-81
2023/01/24 11:19:29;;;;;;;13.02;5.55;;;20.20;52.90;;;;;;4983280;28;87714;-81
2023/01/24 11:22:00;;;;;;;13.43;5.30;;;20.20;53.00;;;;;;4981966;28;88413;-80
2023/01/24 11:24:28;;;;;;;10.23;4.65;;;20.10;53.00;;;;;;4978941;28;87529;-81
2023/01/24 11:27:12;;;;;;;7.63;4.63;;;20.10;53.20;;;;;;4987553;28;87067;-80
2023/01/24 11:29:37;;;;;;;9.32;4.63;;;20.10;53.00;;;;;;4986903;28;87707;-80
2023/01/24 11:32:26;;;;;;;13.10;5.07;;;20.10;53.10;;;;;;4985204;28;88271;-81
2023/01/24 11:35:02;;;;;;;10.35;5.10;;;20.30;52.10;;;;;;4982520;28;87282;-80
2023/01/24 11:37:58;;;;;;;8.95;4.43;;;20.30;52.20;;;;;;4984392;28;88154;-80
2023/01/24 11:40:42;;;;;;;8.00;4.25;;;20.20;52.50;;;;;;4985965;28;88331;-80
2023/01/24 11:43:45;;;;;;;6.28;3.78;;;20.20;52.70;;;;;;4986412;28;90753;-80
2023/01/24 11:46:21;;;;;;;8.13;4.38;;;20.20;52.60;;;;;;4984500;28;87312;-81
2023/01/24 11:48:58;;;;;;;4.93;3.63;;;20.20;52.50;;;;;;4984711;28;87307;-80
2023/01/24 11:51:41;;;;;;;10.82;4.47;;;20.30;52.50;;;;;;4987414;28;90387;-80
2023/01/24 11:54:27;;;;;;;7.35;4.13;;;20.30;52.60;;;;;;4985734;28;89420;-80
2023/01/24 11:57:04;;;;;;;8.55;3.72;;;20.30;52.60;;;;;;4985690;28;87604;-79
2023/01/24 11:59:55;;;;;;;8.80;4.13;;;20.30;52.90;;;;;;4990033;28;87434;-80
2023/01/24 12:02:31;;;;;;;8.18;3.85;;;20.30;52.70;;;;;;4987264;28;88185;-80
2023/01/24 12:05:28;;;;;;;7.88;3.50;;;20.20;52.80;;;;;;4981901;28;86975;-80
2023/01/24 12:08:03;;;;;;;5.80;3.75;;;20.20;52.90;;;;;;4989601;28;87772;-80
2023/01/24 12:10:41;;;;;;;8.43;3.97;;;20.20;53.10;;;;;;4981209;28;86966;-81
2023/01/24 12:13:41;;;;;;;8.80;3.40;;;20.10;53.10;;;;;;4985199;28;88853;-80
2023/01/24 12:16:48;;;;;;;4.97;3.42;;;20.10;53.00;;;;;;4988600;28;87622;-80
2023/01/24 12:19:45;;;;;;;5.35;3.35;;;20.20;53.00;;;;;;4971344;28;89346;-80
2023/01/24 12:22:17;;;;;;;6.28;3.97;;;20.20;52.90;;;;;;4969668;28;87066;-80
2023/01/24 12:24:51;;;;;;;9.65;3.35;;;20.20;53.00;;;;;;4972433;28;88652;-80
2023/01/24 12:27:21;;;;;;;6.65;3.70;;;20.10;53.00;;;;;;4967482;28;87208;-79
2023/01/24 12:29:51;;;;;;;7.07;3.47;;;20.20;53.00;;;;;;4955964;28;87174;-80
2023/01/24 12:32:25;;;;;;;8.05;4.00;;;20.20;53.00;;;;;;4971544;28;89155;-80
2023/01/24 12:35:00;;;;;;;6.43;3.40;;;20.30;52.10;;;;;;4964982;28;88953;-80
2023/01/24 12:37:38;;;;;;;6.32;3.80;;;20.40;52.10;;;;;;4966131;28;89354;-80
2023/01/24 12:40:12;;;;;;;6.88;4.07;;;20.30;52.20;;;;;;4971938;28;87135;-80
2023/01/24 12:43:06;;;;;;;15.15;4.53;;;20.30;52.30;;;;;;4945337;28;87513;-80
2023/01/24 12:45:49;;;;;;;11.93;4.03;;;20.40;52.10;;;;;;4971599;28;88623;-81
2023/01/24 12:48:35;;;;;;;7.53;4.10;;;20.40;52.20;;;;;;4971686;28;89389;-80
2023/01/24 12:51:31;;;;;;;10.55;3.67;;;20.50;52.10;;;;;;4984515;28;87608;-80
2023/01/24 12:53:59;;;;;;;6.25;3.38;;;20.60;52.30;;;;;;4990506;28;89197;-80
2023/01/24 12:56:51;;;;;;;5.15;3.55;;;20.70;52.30;;;;;;4984080;28;88568;-80
2023/01/24 12:59:28;;;;;;;8.20;3.80;;;20.80;52.00;;;;;;4986300;28;88356;-80
2023/01/24 13:02:02;;;;;;;9.35;3.25;;;20.80;51.90;;;;;;4986841;28;88158;-88
2023/01/24 13:05:26;;;;;;;8.60;3.78;;;20.90;51.70;;;;;;4989394;28;87548;-88
2023/01/24 13:08:18;;;;;;;4.72;3.20;;;20.90;51.60;;;;;;4896898;28;92262;-87
2023/01/24 13:11:02;;;;;;;5.63;3.13;;;20.80;51.70;;;;;;4892519;28;92606;-87
2023/01/24 13:14:02;;;;;;;6.13;3.28;;;20.70;51.90;;;;;;4895935;28;87277;-87
2023/01/24 13:17:04;;;;;;;8.80;3.42;;;20.70;52.20;;;;;;4894268;28;87251;-88
2023/01/24 13:19:44;;;;;;;10.35;3.92;;;20.60;52.30;;;;;;4896180;28;88281;-88
2023/01/24 13:22:09;;;;;;;6.03;3.47;;;20.60;52.40;;;;;;4897152;28;88307;-87
2023/01/24 13:24:48;;;;;;;7.85;3.58;;;20.50;52.60;;;;;;4896116;28;87550;-88
2023/01/24 13:27:36;;;;;;;8.30;3.20;;;20.50;52.60;;;;;;4895930;28;89962;-87
2023/01/24 13:30:28;;;;;;;5.43;3.45;;;20.50;52.80;;;;;;4895309;28;89173;-87
2023/01/24 13:33:05;;;;;;;12.68;3.60;;;20.50;52.90;;;;;;4892415;28;89370;-88
2023/01/24 13:35:31;;;;;;;5.68;3.47;;;20.60;52.60;;;;;;4891080;28;87157;-88
2023/01/24 13:38:25;;;;;;;6.65;3.20;;;20.70;52.70;;;;;;4894759;28;88748;-87
2023/01/24 13:41:03;;;;;;;4.10;2.75;;;20.70;52.60;;;;;;4897012;28;94275;-87
2023/01/24 13:43:46;;;;;;;4.95;3.22;;;20.80;52.60;;;;;;4900311;28;87866;-88